Terminal Aerodrome Forecast
Issued by NWS Raleigh/Durham, NC

Home | Current Version | Previous Version | Text Only | Print | Product List | Glossary On
Versions: 1 2 3 4 5 6 7 8 9 10 11 12
000
FTUS42 KRAH 040527
TAFGSO
TAF
KGSO 040527Z 0406/0506 07004KT P6SM BKN140 OVC200
     FM041200 05004KT P6SM OVC070
     FM041500 08005KT P6SM -RA OVC050
     FM041800 10004KT 6SM -RA BR BKN015 OVC040
     FM042100 12004KT 4SM -RA BR BKN008 OVC025
     FM050200 13004KT 3SM -RA BR OVC006=

USA.gov is the U.S. government's official web portal to all federal, state and local government web resources and services.